Time;durP1;ratioP1;P1;durP2;ratioP2;P2;SDS_P1;SDS_P2;PMS_P1;PMS_P2;Temp;Humidity;BMP_temperature;BMP_pressure;BME280_temperature;BME280_humidity;BME280_pressure;Samples;Min_cycle;Max_cycle;Signal;HPM_P1;HPM_P2
2021/04/08 00:00:22;;;;;;;9.57;3.50;;;0.10;99.90;;;;;;4982380;28;20054;-65
2021/04/08 00:02:49;;;;;;;6.55;2.88;;;0.10;99.90;;;;;;4981682;28;20062;-67
2021/04/08 00:05:16;;;;;;;4.57;2.65;;;0.10;99.90;;;;;;4984647;28;20441;-67
2021/04/08 00:07:43;;;;;;;14.05;4.07;;;0.20;99.90;;;;;;4984053;28;20058;-65
2021/04/08 00:10:11;;;;;;;11.48;3.45;;;0.10;99.90;;;;;;4982437;28;20042;-67
2021/04/08 00:12:38;;;;;;;6.47;3.22;;;0.10;99.90;;;;;;4980382;28;20053;-64
2021/04/08 00:15:10;;;;;;;7.53;3.08;;;0.10;99.90;;;;;;4983403;28;20128;-68
2021/04/08 00:17:36;;;;;;;6.88;3.10;;;0.10;99.90;;;;;;4983441;28;20058;-64
2021/04/08 00:20:14;;;;;;;8.70;4.40;;;0.10;99.90;;;;;;4983517;28;20496;-64
2021/04/08 00:22:40;;;;;;;3.83;1.98;;;0.10;99.90;;;;;;4979471;28;20066;-68
2021/04/08 00:25:08;;;;;;;7.05;3.00;;;0.10;99.90;;;;;;4982987;28;20058;-68
2021/04/08 00:27:34;;;;;;;6.57;2.90;;;0.20;99.90;;;;;;4981955;28;20625;-64
2021/04/08 00:30:01;;;;;;;16.60;3.70;;;0.20;99.90;;;;;;4999589;28;20077;-69
2021/04/08 00:32:27;;;;;;;11.07;3.20;;;0.20;99.90;;;;;;4984525;28;20058;-64
2021/04/08 00:34:54;;;;;;;8.95;2.92;;;0.30;99.90;;;;;;4984039;28;20046;-65
2021/04/08 00:37:20;;;;;;;6.68;3.45;;;0.30;99.90;;;;;;4982559;28;20530;-66
2021/04/08 00:39:48;;;;;;;9.73;3.63;;;0.30;99.90;;;;;;4981469;28;20392;-64
2021/04/08 00:42:15;;;;;;;10.52;4.65;;;0.30;99.90;;;;;;4981811;28;20047;-66
2021/04/08 00:44:41;;;;;;;12.70;4.38;;;0.30;99.90;;;;;;4980996;28;20057;-66
2021/04/08 00:47:08;;;;;;;16.17;5.68;;;0.40;99.90;;;;;;4983881;28;20050;-64
2021/04/08 00:49:34;;;;;;;8.52;3.33;;;0.40;99.90;;;;;;4983213;28;20503;-67
2021/04/08 00:52:01;;;;;;;8.85;2.78;;;0.80;99.90;;;;;;4998475;28;20046;-66
2021/04/08 00:54:28;;;;;;;8.65;2.05;;;0.90;99.90;;;;;;4981645;28;20065;-67
2021/04/08 00:56:58;;;;;;;;;;;1.10;99.90;;;;;;4987905;28;20058;-65
2021/04/08 00:59:24;;;;;;;8.82;2.70;;;1.20;99.90;;;;;;4982381;28;20347;-67
2021/04/08 01:01:51;;;;;;;3.58;2.38;;;1.40;99.90;;;;;;4987781;28;20436;-65
2021/04/08 01:04:18;;;;;;;5.95;1.95;;;1.40;99.90;;;;;;4982687;28;20050;-68
2021/04/08 01:06:44;;;;;;;10.10;4.28;;;1.60;99.90;;;;;;4985208;28;20435;-68
2021/04/08 01:09:10;;;;;;;3.97;2.00;;;1.60;99.90;;;;;;4980809;28;20054;-65
2021/04/08 01:11:38;;;;;;;6.63;2.13;;;1.60;99.90;;;;;;4982727;28;20105;-66
2021/04/08 01:14:05;;;;;;;6.28;3.28;;;1.50;99.90;;;;;;4981137;28;20500;-66
2021/04/08 01:17:09;;;;;;;11.43;2.88;;;1.50;99.90;;;;;;4995059;28;20050;-64
2021/04/08 01:19:57;;;;;;;4.40;2.22;;;1.60;99.90;;;;;;4978744;28;20065;-65
2021/04/08 01:22:54;;;;;;;7.10;1.67;;;1.70;99.90;;;;;;4979869;28;20741;-67
2021/04/08 01:25:59;;;;;;;2.92;1.52;;;1.90;99.90;;;;;;4982200;28;20058;-67
2021/04/08 01:28:35;;;;;;;12.60;2.00;;;1.90;99.90;;;;;;4936070;28;21583;-65
2021/04/08 01:31:04;;;;;;;3.58;1.70;;;1.90;99.90;;;;;;4978560;28;20058;-65
2021/04/08 01:33:30;;;;;;;7.93;1.80;;;1.90;99.90;;;;;;4980221;28;20059;-64
2021/04/08 01:36:02;;;;;;;3.13;1.48;;;1.90;99.90;;;;;;4985805;28;20049;-65
2021/04/08 01:38:38;;;;;;;5.07;1.42;;;1.90;99.90;;;;;;4977601;28;20050;-65
2021/04/08 01:41:06;;;;;;;4.72;2.63;;;2.00;99.90;;;;;;4981457;28;20526;-64
2021/04/08 01:43:37;;;;;;;3.80;0.98;;;2.00;99.90;;;;;;4981469;28;20050;-67
2021/04/08 01:46:05;;;;;;;2.75;0.98;;;2.00;99.90;;;;;;4982271;28;20054;-65
2021/04/08 01:48:33;;;;;;;2.28;0.88;;;2.00;99.90;;;;;;4980713;28;20050;-67
2021/04/08 01:51:01;;;;;;;3.92;1.10;;;1.90;99.90;;;;;;4983614;28;20050;-70
2021/04/08 01:53:28;;;;;;;6.18;1.33;;;1.90;99.90;;;;;;4984070;28;20058;-66
2021/04/08 01:55:58;;;;;;;6.03;1.45;;;1.90;99.90;;;;;;4982185;28;20042;-69
2021/04/08 01:58:27;;;;;;;2.90;1.02;;;1.90;99.90;;;;;;4980275;28;20054;-71
2021/04/08 02:00:55;;;;;;;8.88;1.38;;;1.90;99.90;;;;;;4981618;28;20074;-68
2021/04/08 02:03:22;;;;;;;2.45;2.15;;;1.90;99.90;;;;;;4982735;28;20050;-66
2021/04/08 02:05:49;;;;;;;6.13;1.23;;;1.80;99.90;;;;;;4980996;28;20380;-65
2021/04/08 02:08:19;;;;;;;3.70;1.10;;;1.80;99.90;;;;;;4977468;28;20086;-71
2021/04/08 02:10:46;;;;;;;4.43;1.42;;;1.70;99.90;;;;;;4980837;28;20409;-67
2021/04/08 02:13:14;;;;;;;2.28;1.17;;;1.60;99.90;;;;;;4979537;28;20050;-64
2021/04/08 02:15:44;;;;;;;3.67;1.23;;;1.50;99.90;;;;;;4979891;28;20126;-65
2021/04/08 02:18:16;;;;;;;5.47;1.20;;;1.50;99.90;;;;;;4978240;28;20064;-65
2021/04/08 02:20:45;;;;;;;3.70;1.52;;;1.40;99.90;;;;;;4979842;28;20130;-65
2021/04/08 02:23:20;;;;;;;8.55;1.35;;;1.30;99.90;;;;;;4981311;28;20058;-66
2021/04/08 02:25:47;;;;;;;5.72;2.05;;;1.20;99.90;;;;;;4981332;28;20176;-67
2021/04/08 02:28:15;;;;;;;4.18;1.50;;;1.20;99.90;;;;;;4980076;28;20050;-64
2021/04/08 02:30:47;;;;;;;6.28;1.15;;;1.10;99.90;;;;;;4981510;28;20073;-67
2021/04/08 02:33:25;;;;;;;3.53;1.13;;;1.10;99.90;;;;;;4978716;28;20051;-66
2021/04/08 02:35:52;;;;;;;5.55;1.48;;;1.00;99.90;;;;;;4982131;28;20507;-65
2021/04/08 02:38:22;;;;;;;4.53;2.33;;;0.90;99.90;;;;;;4978305;28;20517;-68
2021/04/08 02:40:49;;;;;;;7.40;1.45;;;0.90;99.90;;;;;;4981370;28;20047;-66
2021/04/08 02:43:15;;;;;;;3.22;1.55;;;0.80;99.90;;;;;;4981322;28;20046;-69
2021/04/08 02:45:42;;;;;;;4.65;1.67;;;0.70;99.90;;;;;;4981693;28;20407;-66
2021/04/08 02:48:10;;;;;;;3.35;1.17;;;0.70;99.90;;;;;;4981482;28;20512;-65
2021/04/08 02:50:40;;;;;;;5.72;1.45;;;0.60;99.90;;;;;;4985361;28;20050;-64
2021/04/08 02:53:22;;;;;;;3.55;1.13;;;0.50;99.90;;;;;;4991970;28;20127;-66
2021/04/08 02:56:01;;;;;;;5.75;1.98;;;0.40;99.90;;;;;;4984927;28;20420;-68
2021/04/08 02:58:30;;;;;;;8.02;1.60;;;0.40;99.90;;;;;;4998645;28;20053;-64
2021/04/08 03:01:13;;;;;;;9.57;1.80;;;0.40;99.90;;;;;;4983559;28;20050;-66
2021/04/08 03:03:52;;;;;;;4.40;2.20;;;0.30;99.90;;;;;;4983818;28;20054;-65
2021/04/08 03:06:20;;;;;;;5.03;2.08;;;0.20;99.90;;;;;;4984114;28;20054;-66
2021/04/08 03:08:52;;;;;;;3.80;1.85;;;0.20;99.90;;;;;;4987279;28;20717;-66
2021/04/08 03:11:34;;;;;;;3.95;1.63;;;0.10;99.90;;;;;;4985608;28;20046;-66
2021/04/08 03:14:06;;;;;;;6.80;1.58;;;0.10;99.90;;;;;;4986332;28;20052;-66
2021/04/08 03:16:38;;;;;;;4.72;2.08;;;0.10;99.90;;;;;;4982210;28;20062;-66
2021/04/08 03:19:09;;;;;;;4.35;1.38;;;0.00;99.90;;;;;;4984441;28;20046;-67
2021/04/08 03:21:36;;;;;;;6.40;1.85;;;0.00;99.90;;;;;;4984956;28;20530;-64
2021/04/08 03:24:04;;;;;;;4.05;1.40;;;-0.10;99.90;;;;;;4983106;28;20443;-63
2021/04/08 03:26:31;;;;;;;4.53;2.40;;;-0.10;99.90;;;;;;4983695;28;20050;-65
2021/04/08 03:28:58;;;;;;;4.03;1.15;;;-0.10;99.90;;;;;;4984342;28;20189;-64
2021/04/08 03:31:26;;;;;;;4.25;1.52;;;-0.10;99.90;;;;;;4985721;28;20045;-66
2021/04/08 03:33:54;;;;;;;5.55;2.40;;;-0.20;99.90;;;;;;4983449;28;20073;-66
2021/04/08 03:36:21;;;;;;;2.38;1.85;;;-0.20;99.90;;;;;;4984241;28;20057;-65
2021/04/08 03:38:48;;;;;;;7.40;1.80;;;-0.20;99.90;;;;;;4984380;28;20058;-64
2021/04/08 03:41:18;;;;;;;4.35;1.92;;;-0.30;99.90;;;;;;4983912;28;20054;-66
2021/04/08 03:43:45;;;;;;;4.53;1.80;;;-0.30;99.90;;;;;;5000176;28;20058;-66
2021/04/08 03:46:13;;;;;;;4.40;1.80;;;-0.30;99.90;;;;;;4982241;28;20057;-67
2021/04/08 03:48:41;;;;;;;6.13;2.08;;;-0.30;99.90;;;;;;4985074;28;20058;-64
2021/04/08 03:51:09;;;;;;;3.55;1.55;;;-0.40;99.90;;;;;;4981763;28;20042;-63
2021/04/08 03:53:38;;;;;;;6.07;1.48;;;-0.50;99.90;;;;;;4984962;28;20046;-63
2021/04/08 03:56:07;;;;;;;4.85;2.08;;;-0.50;99.90;;;;;;4982332;28;20050;-64
2021/04/08 03:58:36;;;;;;;6.85;2.33;;;-0.50;99.90;;;;;;4984093;28;20712;-64
2021/04/08 04:01:04;;;;;;;12.50;2.38;;;-0.50;99.90;;;;;;4981557;28;20120;-66
2021/04/08 04:03:30;;;;;;;10.18;3.17;;;-0.60;99.90;;;;;;4981368;28;20046;-65
2021/04/08 04:05:57;;;;;;;9.45;2.35;;;-0.60;99.90;;;;;;4982585;28;20432;-64
2021/04/08 04:08:25;;;;;;;7.60;2.58;;;-0.60;99.90;;;;;;4982903;28;20065;-66
2021/04/08 04:10:51;;;;;;;5.28;2.20;;;-0.60;99.90;;;;;;4981820;28;20042;-70
2021/04/08 04:13:18;;;;;;;8.45;2.00;;;-0.70;99.90;;;;;;4984890;28;20472;-64
2021/04/08 04:15:49;;;;;;;5.80;2.13;;;-0.70;99.90;;;;;;4982295;28;20046;-64
2021/04/08 04:18:17;;;;;;;11.77;3.05;;;-0.70;99.90;;;;;;4981815;28;20132;-65
2021/04/08 04:20:44;;;;;;;7.53;2.05;;;-0.70;99.90;;;;;;4983836;28;20042;-63
2021/04/08 04:23:11;;;;;;;5.85;2.25;;;-0.80;99.90;;;;;;4984381;28;20058;-70
2021/04/08 04:25:38;;;;;;;8.95;2.53;;;-0.80;99.90;;;;;;4983983;28;20054;-67
2021/04/08 04:28:05;;;;;;;4.85;2.53;;;-0.80;99.90;;;;;;4985018;28;20153;-66
2021/04/08 04:30:31;;;;;;;7.38;3.25;;;-0.80;99.90;;;;;;4984264;28;20850;-66
2021/04/08 04:32:58;;;;;;;9.55;3.05;;;-0.80;99.90;;;;;;4984485;28;20089;-68
2021/04/08 04:35:24;;;;;;;7.65;3.08;;;-0.80;99.90;;;;;;4983255;28;20054;-67
2021/04/08 04:37:51;;;;;;;9.43;2.90;;;-0.80;99.90;;;;;;4985555;28;20054;-66
2021/04/08 04:40:18;;;;;;;14.05;4.10;;;-0.70;99.90;;;;;;4980595;28;20069;-70
2021/04/08 04:42:45;;;;;;;19.13;4.38;;;-0.70;99.90;;;;;;4983443;28;20046;-69
2021/04/08 04:45:13;;;;;;;24.10;6.38;;;-0.70;99.90;;;;;;4983743;28;20096;-64
2021/04/08 04:47:41;;;;;;;19.58;6.50;;;-0.70;99.90;;;;;;4984727;28;20136;-69
2021/04/08 04:50:12;;;;;;;14.30;4.50;;;-0.70;99.90;;;;;;4986468;28;20132;-66
2021/04/08 04:52:38;;;;;;;17.35;4.47;;;-0.70;99.90;;;;;;4982401;28;20061;-64
2021/04/08 04:55:07;;;;;;;6.55;3.08;;;-0.70;99.90;;;;;;4983326;28;20046;-70
2021/04/08 04:57:33;;;;;;;8.60;3.50;;;-0.60;99.90;;;;;;4982066;28;20101;-66
2021/04/08 05:00:00;;;;;;;9.48;2.83;;;-0.50;99.90;;;;;;4983774;28;20081;-70
2021/04/08 05:02:26;;;;;;;13.70;3.03;;;-0.50;99.90;;;;;;4979051;28;20046;-67
2021/04/08 05:04:53;;;;;;;17.25;3.35;;;-0.50;99.90;;;;;;4984222;28;20449;-68
2021/04/08 05:07:19;;;;;;;8.95;2.75;;;-0.40;99.90;;;;;;4982326;28;20042;-65
2021/04/08 05:09:45;;;;;;;11.00;3.30;;;-0.30;99.90;;;;;;4982590;28;20129;-67
2021/04/08 05:12:12;;;;;;;12.68;2.97;;;-0.30;99.90;;;;;;4980761;28;20049;-70
2021/04/08 05:14:38;;;;;;;15.88;4.40;;;-0.20;99.90;;;;;;4982115;28;20124;-70
2021/04/08 05:17:05;;;;;;;11.90;3.80;;;-0.20;99.90;;;;;;4982348;28;20085;-66
2021/04/08 05:19:32;;;;;;;10.93;2.78;;;-0.10;99.90;;;;;;4982748;28;20081;-63
2021/04/08 05:21:58;;;;;;;19.08;4.60;;;0.00;99.90;;;;;;4981959;28;21415;-65
2021/04/08 05:24:29;;;;;;;17.90;5.43;;;0.20;99.90;;;;;;4980904;28;20206;-68
2021/04/08 05:26:56;;;;;;;19.88;6.32;;;0.20;99.90;;;;;;4983545;28;20120;-64
2021/04/08 05:29:22;;;;;;;13.35;4.18;;;0.40;99.90;;;;;;4984678;28;20046;-64
2021/04/08 05:31:48;;;;;;;10.00;3.00;;;0.50;99.90;;;;;;4984582;28;20480;-65
2021/04/08 05:34:15;;;;;;;6.38;3.45;;;0.60;99.90;;;;;;4984724;28;20069;-66
2021/04/08 05:36:41;;;;;;;13.30;2.92;;;0.70;99.90;;;;;;4987273;28;20085;-64
2021/04/08 05:39:08;;;;;;;4.50;2.85;;;0.90;99.90;;;;;;4984183;28;20054;-66
2021/04/08 05:41:34;;;;;;;6.88;2.38;;;1.10;99.90;;;;;;4985200;28;20140;-64
2021/04/08 05:44:03;;;;;;;11.50;2.13;;;1.20;99.90;;;;;;4982823;28;20056;-64
2021/04/08 05:46:29;;;;;;;6.97;2.25;;;1.30;99.90;;;;;;4984389;28;20096;-67
2021/04/08 05:48:56;;;;;;;4.32;2.40;;;1.50;99.90;;;;;;4985890;28;20146;-67
2021/04/08 05:51:22;;;;;;;6.38;1.85;;;1.50;99.90;;;;;;4979086;28;20057;-65
2021/04/08 05:53:49;;;;;;;6.80;2.53;;;1.70;99.90;;;;;;4980904;28;20066;-65
2021/04/08 05:56:15;;;;;;;6.20;2.63;;;1.80;99.90;;;;;;4982962;28;20093;-67
2021/04/08 05:58:42;;;;;;;4.15;1.75;;;1.90;99.90;;;;;;4982390;28;20065;-67
2021/04/08 06:01:09;;;;;;;4.68;1.95;;;2.00;99.90;;;;;;4982835;28;21075;-67
2021/04/08 06:03:35;;;;;;;4.75;2.10;;;2.00;99.90;;;;;;4982860;28;20679;-66
2021/04/08 06:06:02;;;;;;;9.35;3.88;;;2.10;99.90;;;;;;4984722;28;20157;-65
2021/04/08 06:08:29;;;;;;;7.22;2.38;;;2.20;99.90;;;;;;4980545;28;20050;-64
2021/04/08 06:10:56;;;;;;;4.70;1.83;;;2.30;99.90;;;;;;4984752;28;20043;-65
2021/04/08 06:13:22;;;;;;;12.57;2.15;;;2.40;99.90;;;;;;4982210;28;20062;-66
2021/04/08 06:15:50;;;;;;;4.38;1.50;;;2.50;99.90;;;;;;4986420;28;20078;-66
2021/04/08 06:18:17;;;;;;;6.72;2.45;;;2.50;99.90;;;;;;4980069;28;20070;-67
2021/04/08 06:20:43;;;;;;;7.97;1.92;;;2.50;99.90;;;;;;4987019;28;20527;-65
2021/04/08 06:23:09;;;;;;;9.57;2.42;;;2.60;99.90;;;;;;4986328;28;20061;-70
2021/04/08 06:25:36;;;;;;;5.90;3.47;;;2.60;99.90;;;;;;4990917;28;20050;-66
2021/04/08 06:28:03;;;;;;;9.52;1.70;;;2.70;99.90;;;;;;5005277;28;20050;-65
2021/04/08 06:30:29;;;;;;;6.20;2.47;;;2.80;99.90;;;;;;4989954;28;20050;-64
2021/04/08 06:32:56;;;;;;;5.50;1.33;;;2.80;99.90;;;;;;4986445;28;20097;-65
2021/04/08 06:35:23;;;;;;;4.97;1.75;;;2.90;99.90;;;;;;4986807;28;20053;-65
2021/04/08 06:37:51;;;;;;;7.07;1.88;;;2.90;99.90;;;;;;4985761;28;20049;-65
2021/04/08 06:40:19;;;;;;;2.83;1.10;;;3.00;99.90;;;;;;4984996;28;20038;-65
2021/04/08 06:42:47;;;;;;;4.93;1.85;;;3.00;99.90;;;;;;5004529;28;20054;-66
2021/04/08 06:45:15;;;;;;;4.28;1.38;;;3.00;99.90;;;;;;4988441;28;20112;-66
2021/04/08 06:48:19;;;;;;;3.97;1.60;;;3.10;99.90;;;;;;4985806;28;20528;-66
2021/04/08 06:50:48;;;;;;;7.75;2.67;;;3.20;99.90;;;;;;4979452;28;20100;-66
2021/04/08 06:53:14;;;;;;;2.88;1.38;;;3.20;99.90;;;;;;4977851;28;20944;-66
2021/04/08 06:55:42;;;;;;;3.20;1.40;;;3.30;99.90;;;;;;4988916;28;20037;-67
2021/04/08 06:58:09;;;;;;;3.83;1.38;;;3.30;99.90;;;;;;4982706;28;20073;-67
2021/04/08 07:00:36;;;;;;;7.00;2.03;;;3.30;99.90;;;;;;4984453;28;20073;-67
2021/04/08 07:03:04;;;;;;;5.53;1.50;;;3.40;99.90;;;;;;4987207;28;20062;-64
2021/04/08 07:05:31;;;;;;;5.15;1.63;;;3.40;99.90;;;;;;4984120;28;20054;-65
2021/04/08 07:07:57;;;;;;;9.13;1.50;;;3.50;99.90;;;;;;4987495;28;20054;-71
2021/04/08 07:10:24;;;;;;;8.57;1.45;;;3.50;99.90;;;;;;4982264;28;20050;-67
2021/04/08 07:12:55;;;;;;;8.88;1.50;;;3.60;99.90;;;;;;4982632;28;20388;-70
2021/04/08 07:15:23;;;;;;;4.85;1.20;;;3.60;99.90;;;;;;4984005;28;20625;-66
2021/04/08 07:17:50;;;;;;;2.53;1.55;;;3.70;99.90;;;;;;4986719;28;20794;-68
2021/04/08 07:20:17;;;;;;;5.15;1.40;;;3.70;99.90;;;;;;4983871;28;20578;-68
2021/04/08 07:22:43;;;;;;;2.90;1.13;;;3.70;99.90;;;;;;4986867;28;20046;-67
2021/04/08 07:25:20;;;;;;;2.83;1.58;;;3.80;99.90;;;;;;4983377;28;20163;-65
2021/04/08 07:27:47;;;;;;;6.90;2.45;;;3.90;99.90;;;;;;4987886;28;20065;-66
2021/04/08 07:30:18;;;;;;;2.88;1.40;;;3.90;99.90;;;;;;4981740;28;20065;-66
2021/04/08 07:32:56;;;;;;;4.45;2.17;;;3.90;99.90;;;;;;4987114;28;20046;-65
2021/04/08 07:35:23;;;;;;;9.32;1.70;;;4.00;99.90;;;;;;4985004;28;20054;-65
2021/04/08 07:37:58;;;;;;;3.72;1.38;;;4.00;99.90;;;;;;4984001;28;20050;-68
2021/04/08 07:40:27;;;;;;;14.13;4.03;;;4.00;99.90;;;;;;4982889;28;21740;-66
2021/04/08 07:42:54;;;;;;;10.68;2.65;;;4.10;99.90;;;;;;4985119;28;20054;-68
2021/04/08 07:45:24;;;;;;;4.05;1.90;;;4.10;99.90;;;;;;4973621;28;20051;-68
2021/04/08 07:47:59;;;;;;;8.97;2.00;;;4.10;99.90;;;;;;4963492;28;20054;-69
2021/04/08 07:50:26;;;;;;;10.73;1.60;;;4.10;99.90;;;;;;4961443;28;20104;-70
2021/04/08 07:52:52;;;;;;;8.48;2.22;;;4.20;99.90;;;;;;4967788;28;20058;-69
2021/04/08 07:55:29;;;;;;;9.27;2.17;;;4.20;99.90;;;;;;4971640;28;20130;-67
2021/04/08 07:58:08;;;;;;;3.97;1.42;;;4.30;99.90;;;;;;4983927;28;20069;-71
2021/04/08 08:00:43;;;;;;;4.20;1.70;;;4.30;99.90;;;;;;4982413;28;20448;-66
2021/04/08 08:03:19;;;;;;;1.98;1.05;;;4.30;99.90;;;;;;4981887;28;20050;-65
2021/04/08 08:05:47;;;;;;;3.65;1.15;;;4.40;99.90;;;;;;4983629;28;20069;-66
2021/04/08 08:08:22;;;;;;;6.00;1.40;;;4.40;99.90;;;;;;4983403;28;20046;-67
2021/04/08 08:10:56;;;;;;;2.95;1.50;;;4.40;99.90;;;;;;4984792;28;22032;-64
2021/04/08 08:13:32;;;;;;;7.25;1.65;;;4.30;99.90;;;;;;4988192;28;20050;-64
2021/04/08 08:16:00;;;;;;;5.53;2.08;;;4.50;99.90;;;;;;4982018;28;20050;-70
2021/04/08 08:18:39;;;;;;;3.15;1.50;;;4.50;99.90;;;;;;4985775;28;20364;-68
2021/04/08 08:21:40;;;;;;;7.50;1.73;;;4.50;99.90;;;;;;4983030;28;20065;-64
2021/04/08 08:24:09;;;;;;;7.97;2.60;;;4.50;99.90;;;;;;4959386;28;20069;-68
2021/04/08 08:26:47;;;;;;;4.38;2.10;;;4.60;99.90;;;;;;4984994;28;20046;-67
2021/04/08 08:29:20;;;;;;;5.15;3.10;;;4.60;99.90;;;;;;4982738;28;20141;-68
2021/04/08 08:31:47;;;;;;;6.53;1.83;;;4.70;99.90;;;;;;4984202;28;20121;-68
2021/04/08 08:34:20;;;;;;;3.80;1.35;;;4.60;99.90;;;;;;4981404;28;20401;-68
2021/04/08 08:36:52;;;;;;;6.78;1.80;;;4.60;99.90;;;;;;4985548;28;20049;-68
2021/04/08 08:39:23;;;;;;;9.55;1.83;;;4.60;99.90;;;;;;4982922;28;20587;-65
2021/04/08 08:41:50;;;;;;;5.32;1.85;;;4.70;99.90;;;;;;4981526;28;20058;-65
2021/04/08 08:44:19;;;;;;;6.07;1.80;;;4.70;99.90;;;;;;4981127;28;20112;-67
2021/04/08 08:47:02;;;;;;;5.03;1.75;;;4.60;99.90;;;;;;4983135;28;20069;-65
2021/04/08 08:49:34;;;;;;;3.25;2.22;;;4.60;99.90;;;;;;4982076;28;20515;-66
2021/04/08 08:52:01;;;;;;;5.38;1.70;;;4.70;99.90;;;;;;4983428;28;20076;-65
2021/04/08 08:54:31;;;;;;;4.80;2.05;;;4.60;99.90;;;;;;4979075;28;20109;-65
2021/04/08 08:56:58;;;;;;;7.35;2.22;;;4.70;99.90;;;;;;4982902;28;20464;-66
2021/04/08 08:59:27;;;;;;;5.13;2.30;;;4.80;99.90;;;;;;4983548;28;20073;-63
2021/04/08 09:01:54;;;;;;;5.72;1.98;;;4.80;99.90;;;;;;4986083;28;20361;-63
2021/04/08 09:04:22;;;;;;;14.98;3.03;;;4.60;99.90;;;;;;4982494;28;20120;-64
2021/04/08 09:06:59;;;;;;;5.35;1.60;;;4.50;99.90;;;;;;4988790;28;20164;-65
2021/04/08 09:09:28;;;;;;;5.65;1.88;;;4.50;99.90;;;;;;4983013;28;20369;-67
2021/04/08 09:11:57;;;;;;;7.18;2.35;;;4.60;99.90;;;;;;4982708;28;20046;-63
2021/04/08 09:14:26;;;;;;;4.13;1.90;;;4.60;99.90;;;;;;4980818;28;20388;-67
2021/04/08 09:16:54;;;;;;;11.30;2.55;;;4.60;99.90;;;;;;4982064;28;20058;-65
2021/04/08 09:19:32;;;;;;;12.23;2.95;;;4.70;99.90;;;;;;4985014;28;20042;-65
2021/04/08 09:22:04;;;;;;;4.10;2.05;;;4.90;99.90;;;;;;4985557;28;20140;-63
2021/04/08 09:24:47;;;;;;;4.85;1.65;;;4.90;99.90;;;;;;4984887;28;20054;-63
2021/04/08 09:27:21;;;;;;;11.88;2.25;;;4.70;99.90;;;;;;4985200;28;20485;-64
2021/04/08 09:29:55;;;;;;;3.67;1.63;;;4.60;99.90;;;;;;4987112;28;20054;-64
2021/04/08 09:32:47;;;;;;;2.97;1.90;;;4.60;99.90;;;;;;4982883;28;20049;-64
2021/04/08 09:35:15;;;;;;;;;;;4.70;99.90;;;;;;4999574;28;20058;-68
2021/04/08 09:37:47;;;;;;;9.68;2.53;;;4.60;99.90;;;;;;4986361;28;19934;-65
2021/04/08 09:40:23;;;;;;;5.55;2.35;;;4.50;99.90;;;;;;4984414;28;20068;-66
2021/04/08 09:43:04;;;;;;;9.07;2.08;;;4.60;99.90;;;;;;4988389;28;20141;-66
2021/04/08 09:45:34;;;;;;;5.18;2.20;;;4.80;99.90;;;;;;4982404;28;20053;-63
2021/04/08 09:48:07;;;;;;;4.85;2.88;;;4.90;99.90;;;;;;4985546;28;20076;-65
2021/04/08 09:50:52;;;;;;;11.48;2.75;;;5.10;99.90;;;;;;4981818;28;20054;-67
2021/04/08 09:53:41;;;;;;;17.42;2.95;;;5.10;99.90;;;;;;4983967;28;20046;-65
2021/04/08 09:56:08;;;;;;;7.15;1.83;;;4.90;99.90;;;;;;4979840;28;20064;-64
2021/04/08 09:58:37;;;;;;;4.20;1.67;;;5.00;99.90;;;;;;4986572;28;20088;-65
2021/04/08 10:01:09;;;;;;;9.23;2.80;;;5.10;99.90;;;;;;4982885;28;20058;-63
2021/04/08 10:03:37;;;;;;;13.90;2.63;;;5.00;99.90;;;;;;4985982;28;20050;-65
2021/04/08 10:06:33;;;;;;;3.45;2.00;;;5.20;99.90;;;;;;4983158;28;20057;-68
2021/04/08 10:09:07;;;;;;;4.85;2.45;;;5.10;99.90;;;;;;4972549;28;20054;-72
2021/04/08 10:11:34;;;;;;;1.92;1.17;;;5.10;99.90;;;;;;4997411;28;20109;-67
2021/04/08 10:14:15;;;;;;;2.33;1.88;;;5.10;99.90;;;;;;4988338;28;20054;-66
2021/04/08 10:16:41;;;;;;;7.40;1.52;;;5.30;99.90;;;;;;4983001;28;20061;-68
2021/04/08 10:19:08;;;;;;;4.78;1.38;;;5.30;99.90;;;;;;4986163;28;20061;-64
2021/04/08 10:21:35;;;;;;;6.97;2.00;;;5.20;99.90;;;;;;4982854;28;20045;-63
2021/04/08 10:24:12;;;;;;;4.32;1.85;;;5.20;99.90;;;;;;4980977;28;20060;-66
2021/04/08 10:26:39;;;;;;;7.80;1.73;;;5.10;99.90;;;;;;4980033;28;20552;-64
2021/04/08 10:29:06;;;;;;;3.95;2.38;;;5.20;99.90;;;;;;4981078;28;20517;-65
2021/04/08 10:31:35;;;;;;;8.13;1.85;;;5.10;99.90;;;;;;4981292;28;20467;-71
2021/04/08 10:34:07;;;;;;;6.35;2.17;;;5.10;99.90;;;;;;4982893;28;20058;-66
2021/04/08 10:36:43;;;;;;;7.80;2.33;;;5.30;99.90;;;;;;4976250;28;20698;-68
2021/04/08 10:39:15;;;;;;;3.55;1.75;;;5.40;99.90;;;;;;4981569;28;20050;-65
2021/04/08 10:42:07;;;;;;;3.50;1.63;;;5.40;99.90;;;;;;4978326;28;20132;-64
2021/04/08 10:44:49;;;;;;;3.40;1.90;;;5.20;99.90;;;;;;4987261;28;20038;-65
2021/04/08 10:47:21;;;;;;;3.60;1.45;;;5.30;99.90;;;;;;4982009;28;20058;-68
2021/04/08 10:49:54;;;;;;;5.07;2.08;;;5.40;99.90;;;;;;4986796;28;20082;-65
2021/04/08 10:52:23;;;;;;;2.92;1.60;;;5.40;99.90;;;;;;4979807;28;20080;-65
2021/04/08 10:54:52;;;;;;;6.45;2.50;;;5.30;99.90;;;;;;4986750;28;20058;-65
2021/04/08 10:57:19;;;;;;;4.47;1.50;;;5.40;99.90;;;;;;4983241;28;20145;-65
2021/04/08 10:59:48;;;;;;;8.18;4.68;;;5.60;99.90;;;;;;4983828;28;20486;-67
2021/04/08 11:02:17;;;;;;;3.42;1.88;;;5.60;99.90;;;;;;4982114;28;20049;-65
2021/04/08 11:04:44;;;;;;;2.15;1.38;;;5.70;99.90;;;;;;4987835;28;20357;-65
2021/04/08 11:07:10;;;;;;;6.50;1.63;;;5.80;99.90;;;;;;4982417;28;20148;-64
2021/04/08 11:09:37;;;;;;;4.78;2.00;;;5.90;99.90;;;;;;4986512;28;20509;-64
2021/04/08 11:12:26;;;;;;;3.95;1.83;;;5.90;99.90;;;;;;4982323;28;20034;-64
2021/04/08 11:15:12;;;;;;;7.00;1.55;;;5.70;99.90;;;;;;4977647;28;20061;-68
2021/04/08 11:17:47;;;;;;;5.80;1.52;;;5.50;99.90;;;;;;4981618;28;20708;-64
2021/04/08 11:20:16;;;;;;;7.80;1.90;;;5.40;99.90;;;;;;4981821;28;20073;-63
2021/04/08 11:22:45;;;;;;;3.53;1.80;;;5.60;99.90;;;;;;4984276;28;20069;-65
2021/04/08 11:25:15;;;;;;;8.55;2.45;;;5.60;99.90;;;;;;4984539;28;20053;-65
2021/04/08 11:27:45;;;;;;;4.40;1.60;;;5.60;99.90;;;;;;4985163;28;20042;-64
2021/04/08 11:30:19;;;;;;;6.32;2.13;;;5.70;99.90;;;;;;4985934;28;20065;-65
2021/04/08 11:32:51;;;;;;;8.75;2.83;;;5.70;99.90;;;;;;4985932;28;20144;-67
2021/04/08 11:35:39;;;;;;;7.20;1.45;;;5.50;99.90;;;;;;4985421;28;20465;-69
2021/04/08 11:38:14;;;;;;;4.15;1.63;;;5.40;99.90;;;;;;4983718;28;20046;-64
2021/04/08 11:41:04;;;;;;;5.82;2.08;;;5.50;99.90;;;;;;4986621;28;20054;-69
2021/04/08 11:43:40;;;;;;;5.72;1.63;;;5.50;99.90;;;;;;4985284;28;20113;-64
2021/04/08 11:46:22;;;;;;;3.88;1.77;;;5.50;99.90;;;;;;4983113;28;20108;-64
2021/04/08 11:48:49;;;;;;;3.33;1.30;;;5.40;99.90;;;;;;4984592;28;20047;-66
2021/04/08 11:51:26;;;;;;;7.25;1.73;;;5.60;99.90;;;;;;4984940;28;20057;-69
2021/04/08 11:53:54;;;;;;;3.92;1.90;;;5.70;99.90;;;;;;4989987;28;20053;-65
2021/04/08 11:56:32;;;;;;;9.48;2.30;;;5.90;99.90;;;;;;4985839;28;20531;-64
2021/04/08 11:59:15;;;;;;;5.72;2.00;;;6.00;99.90;;;;;;4986757;28;20062;-65
2021/04/08 12:01:48;;;;;;;9.95;2.65;;;6.10;99.90;;;;;;4985089;28;20042;-64
2021/04/08 12:04:16;;;;;;;10.27;3.90;;;6.30;99.90;;;;;;4983675;28;20097;-64
2021/04/08 12:06:50;;;;;;;6.90;1.80;;;6.50;99.90;;;;;;4983427;28;20052;-63
2021/04/08 12:09:32;;;;;;;4.15;1.80;;;6.70;99.90;;;;;;4986034;28;20042;-64
2021/04/08 12:11:58;;;;;;;7.10;1.98;;;6.80;99.90;;;;;;4986726;28;20176;-69
2021/04/08 12:14:25;;;;;;;2.97;1.42;;;6.60;99.90;;;;;;4988634;28;21870;-69
2021/04/08 12:17:07;;;;;;;6.55;1.58;;;6.80;99.90;;;;;;4985869;28;20132;-66
2021/04/08 12:19:36;;;;;;;4.60;1.45;;;6.80;99.90;;;;;;4984986;28;20145;-69
2021/04/08 12:22:09;;;;;;;6.22;2.05;;;7.00;99.90;;;;;;4987675;28;20053;-65
2021/04/08 12:24:37;;;;;;;5.30;2.40;;;7.20;99.90;;;;;;4984348;28;20054;-64
2021/04/08 12:27:25;;;;;;;4.70;1.30;;;7.30;99.90;;;;;;4983912;28;20057;-65
2021/04/08 12:29:51;;;;;;;3.63;1.05;;;7.50;99.90;;;;;;4987351;28;20322;-64
2021/04/08 12:32:30;;;;;;;5.35;1.23;;;7.60;99.90;;;;;;4982896;28;20054;-65
2021/04/08 12:34:57;;;;;;;5.70;1.13;;;7.70;99.90;;;;;;4983282;28;20050;-66
2021/04/08 12:37:25;;;;;;;3.25;1.33;;;7.80;99.90;;;;;;4983173;28;20046;-64
2021/04/08 12:39:54;;;;;;;5.00;1.52;;;7.70;99.90;;;;;;4984357;28;20206;-65
2021/04/08 12:42:22;;;;;;;3.28;1.10;;;7.70;99.90;;;;;;4979699;28;20070;-64
2021/04/08 12:44:49;;;;;;;3.78;0.68;;;7.70;99.90;;;;;;4983697;28;20116;-66
2021/04/08 12:47:16;;;;;;;4.53;1.45;;;7.70;99.90;;;;;;4981895;28;20054;-65
2021/04/08 12:49:42;;;;;;;3.75;1.33;;;7.70;99.90;;;;;;4983934;28;20072;-66
2021/04/08 12:52:09;;;;;;;1.42;0.90;;;7.80;99.90;;;;;;4975439;28;20128;-64
2021/04/08 12:54:35;;;;;;;6.57;2.33;;;7.90;99.90;;;;;;4982696;28;20050;-68
2021/04/08 12:57:03;;;;;;;5.88;1.52;;;8.10;99.90;;;;;;4985159;28;20057;-67
2021/04/08 12:59:30;;;;;;;4.82;1.10;;;8.00;99.90;;;;;;4989464;28;20052;-63
2021/04/08 13:01:58;;;;;;;3.45;1.65;;;8.10;99.90;;;;;;4983233;28;20045;-66
2021/04/08 13:04:24;;;;;;;5.47;0.95;;;8.30;99.90;;;;;;4984796;28;20199;-68
2021/04/08 13:06:52;;;;;;;4.07;1.02;;;8.40;99.90;;;;;;4984859;28;20054;-67
2021/04/08 13:09:18;;;;;;;2.03;1.55;;;8.60;99.90;;;;;;4979941;28;20057;-66
2021/04/08 13:11:45;;;;;;;5.28;1.00;;;8.70;99.90;;;;;;4985471;28;20056;-69